createdAt,value
2019-03-27T00:00:43.327Z,37.63
2019-03-27T00:05:44.742Z,28.60
2019-03-27T00:10:46.273Z,31.95
2019-03-27T00:15:47.728Z,37.60
2019-03-27T00:20:49.553Z,30.80
2019-03-27T00:25:50.917Z,37.88
2019-03-27T00:30:52.398Z,39.95
2019-03-27T00:35:53.697Z,42.78
2019-03-27T00:40:55.026Z,45.85
2019-03-27T00:45:56.356Z,37.28
2019-03-27T00:50:57.891Z,43.48
2019-03-27T00:55:59.221Z,40.85
2019-03-27T01:01:05.741Z,38.28
2019-03-27T01:06:07.592Z,39.98
2019-03-27T01:11:09.119Z,43.52
2019-03-27T01:16:10.663Z,42.58
2019-03-27T01:26:32.298Z,37.13
2019-03-27T01:31:34.017Z,45.75
2019-03-27T01:36:35.345Z,41.77
2019-03-27T01:41:36.990Z,35.03
2019-03-27T01:46:38.403Z,41.35
2019-03-27T01:51:39.745Z,40.43
2019-03-27T01:56:41.091Z,43.15
2019-03-27T02:01:42.501Z,48.25
2019-03-27T02:06:43.814Z,46.53
2019-03-27T02:11:45.142Z,37.85
2019-03-27T02:16:47.330Z,36.03
2019-03-27T02:21:48.885Z,39.38
2019-03-27T02:26:50.297Z,38.55
2019-03-27T02:31:51.579Z,43.83
2019-03-27T02:36:52.994Z,34.35
2019-03-27T02:41:54.540Z,38.95
2019-03-27T02:46:56.159Z,34.88
2019-03-27T02:51:57.608Z,39.63
2019-03-27T02:56:59.101Z,42.38
2019-03-27T03:02:00.566Z,35.70
2019-03-27T03:07:02.108Z,37.35
2019-03-27T03:12:03.498Z,40.60
2019-03-27T03:17:06.028Z,36.17
2019-03-27T03:22:07.401Z,36.63
2019-03-27T03:27:27.233Z,47.20
2019-03-27T03:32:28.597Z,37.17
2019-03-27T03:37:30.028Z,38.50
2019-03-27T03:42:31.787Z,35.50
2019-03-27T03:47:33.059Z,37.85
2019-03-27T03:52:34.731Z,40.85
2019-03-27T03:57:36.801Z,35.13
2019-03-27T04:02:38.849Z,38.60
2019-03-27T04:07:40.122Z,35.50
2019-03-27T04:12:41.447Z,30.25
2019-03-27T04:17:42.795Z,34.78
2019-03-27T04:22:44.322Z,44.55
2019-03-27T04:27:45.698Z,33.48
2019-03-27T04:32:46.976Z,36.68
2019-03-27T04:37:48.401Z,37.50
2019-03-27T04:42:49.798Z,34.60
2019-03-27T04:47:51.274Z,36.95
2019-03-27T04:52:52.978Z,30.02
2019-03-27T04:57:54.353Z,35.03
2019-03-27T05:02:55.753Z,29.12
2019-03-27T05:07:57.163Z,36.40
2019-03-27T05:12:59.921Z,32.95
2019-03-27T05:18:01.343Z,33.80
2019-03-27T05:23:02.873Z,32.42
2019-03-27T05:28:04.164Z,30.65
2019-03-27T05:33:06.105Z,38.10
2019-03-27T05:38:07.720Z,34.83
2019-03-27T05:43:10.416Z,31.40
2019-03-27T05:48:11.735Z,27.13
2019-03-27T05:53:13.168Z,27.40
2019-03-27T05:58:15.526Z,29.82
2019-03-27T06:03:17.001Z,32.93
2019-03-27T06:08:18.456Z,23.05
2019-03-27T06:13:19.860Z,26.27
2019-03-27T06:18:21.197Z,33.88
2019-03-27T06:23:22.706Z,29.60
2019-03-27T06:28:24.374Z,35.33
2019-03-27T06:33:26.129Z,29.60
2019-03-27T06:38:41.178Z,35.70
2019-03-27T06:43:43.280Z,33.08
2019-03-27T06:48:44.683Z,33.35
2019-03-27T06:53:46.426Z,31.48
2019-03-27T06:58:54.481Z,36.65
2019-03-27T07:03:51.140Z,31.33
2019-03-27T07:08:52.850Z,31.30
2019-03-27T07:13:54.361Z,34.27
2019-03-27T07:18:55.711Z,32.25
2019-03-27T07:23:57.435Z,34.30
2019-03-27T07:28:58.991Z,30.12
2019-03-27T07:34:00.320Z,31.95
2019-03-27T07:39:10.864Z,35.73
2019-03-27T07:44:05.878Z,31.80
2019-03-27T07:49:07.434Z,28.00
2019-03-27T07:54:08.921Z,30.57
2019-03-27T07:59:10.644Z,31.48
2019-03-27T08:04:14.446Z,29.50
2019-03-27T08:09:15.479Z,27.42
2019-03-27T08:14:18.222Z,28.23
2019-03-27T08:19:19.564Z,22.15
2019-03-27T08:24:22.701Z,21.15
2019-03-27T08:29:42.704Z,19.35
2019-03-27T08:34:44.181Z,41.95
2019-03-27T08:39:45.521Z,21.05
2019-03-27T08:44:46.794Z,15.05
2019-03-27T08:49:48.132Z,16.67
2019-03-27T08:54:49.439Z,9.95
2019-03-27T08:59:50.966Z,49.40
2019-03-27T09:04:52.421Z,12.20
2019-03-27T09:09:53.834Z,19.82
2019-03-27T09:14:55.150Z,13.83
2019-03-27T09:19:57.206Z,17.85
2019-03-27T09:24:58.753Z,9.73
2019-03-27T09:30:00.378Z,7.70
2019-03-27T09:35:03.145Z,7.00
2019-03-27T09:40:06.422Z,10.03
2019-03-27T09:45:08.777Z,10.05
2019-03-27T09:50:12.468Z,8.90
2019-03-27T09:55:14.011Z,9.78
2019-03-27T10:00:21.104Z,10.03
2019-03-27T10:05:22.741Z,8.53
2019-03-27T10:10:24.227Z,7.95
2019-03-27T10:15:25.895Z,9.83
2019-03-27T10:20:27.560Z,9.45
2019-03-27T10:25:28.936Z,7.50
2019-03-27T10:30:32.256Z,8.20
2019-03-27T10:35:33.602Z,10.55
2019-03-27T10:40:35.054Z,7.17
2019-03-27T10:45:36.385Z,6.85
2019-03-27T10:50:38.184Z,7.17
2019-03-27T10:55:39.637Z,7.80
2019-03-27T11:00:41.582Z,7.65
2019-03-27T11:05:43.086Z,9.93
2019-03-27T11:10:46.281Z,11.70
2019-03-27T11:15:47.905Z,7.87
2019-03-27T11:20:51.241Z,11.63
2019-03-27T11:25:52.788Z,11.78
2019-03-27T11:30:54.328Z,9.03
2019-03-27T11:35:55.776Z,8.08
2019-03-27T11:40:59.432Z,11.90
2019-03-27T11:46:05.123Z,9.28
2019-03-27T11:51:06.772Z,12.13
2019-03-27T11:56:09.458Z,9.50
2019-03-27T12:01:13.241Z,8.45
2019-03-27T12:06:14.800Z,8.75
2019-03-27T12:11:18.243Z,7.67
2019-03-27T12:16:19.752Z,9.20
2019-03-27T12:21:21.239Z,9.85
2019-03-27T12:26:22.952Z,8.18
2019-03-27T12:31:24.744Z,9.05
2019-03-27T12:36:29.591Z,9.45
2019-03-27T12:41:33.022Z,7.95
2019-03-27T12:46:34.559Z,11.78
2019-03-27T12:51:36.098Z,12.82
2019-03-27T12:56:37.977Z,11.35
2019-03-27T13:01:39.532Z,9.03
2019-03-27T13:06:42.475Z,8.88
2019-03-27T13:11:43.972Z,10.25
2019-03-27T13:16:52.188Z,9.70
2019-03-27T13:21:52.542Z,11.83
2019-03-27T13:26:54.435Z,9.90
2019-03-27T13:31:56.089Z,10.32
2019-03-27T13:36:57.838Z,13.62
2019-03-27T13:42:04.615Z,13.28
2019-03-27T13:47:15.109Z,11.53
2019-03-27T13:52:18.611Z,11.45
2019-03-27T13:57:20.199Z,11.20
2019-03-27T14:02:21.739Z,12.23
2019-03-27T14:07:23.339Z,12.73
2019-03-27T14:12:24.964Z,13.08
2019-03-27T14:17:28.323Z,16.17
2019-03-27T14:22:29.941Z,15.18
2019-03-27T14:27:33.346Z,15.78
2019-03-27T14:32:35.028Z,12.10
2019-03-27T14:37:40.561Z,15.90
2019-03-27T14:42:45.766Z,16.45
2019-03-27T14:47:47.107Z,14.87
2019-03-27T14:52:50.655Z,15.00
2019-03-27T14:57:52.252Z,16.15
2019-03-27T15:02:56.803Z,13.45
2019-03-27T15:08:04.367Z,22.22
2019-03-27T15:13:06.326Z,12.53
2019-03-27T15:18:08.102Z,17.30
2019-03-27T15:23:09.862Z,16.52
2019-03-27T15:28:11.569Z,20.72
2019-03-27T15:33:13.053Z,15.45
2019-03-27T15:38:16.569Z,18.12
2019-03-27T15:48:41.705Z,18.37
2019-03-27T15:53:43.158Z,15.60
2019-03-27T15:58:44.844Z,18.85
2019-03-27T16:03:46.352Z,17.17
2019-03-27T16:08:47.873Z,18.80
2019-03-27T16:13:49.429Z,16.67
2019-03-27T16:18:53.320Z,17.60
2019-03-27T16:24:06.212Z,20.48
2019-03-27T16:29:00.039Z,15.98
2019-03-27T16:34:01.558Z,15.88
2019-03-27T16:39:08.129Z,16.67
2019-03-27T16:44:10.316Z,15.85
2019-03-27T16:49:14.405Z,15.43
2019-03-27T16:54:18.900Z,14.47
2019-03-27T16:59:20.968Z,14.65
2019-03-27T17:04:22.564Z,13.70
2019-03-27T17:09:25.411Z,11.90
2019-03-27T17:14:27.557Z,18.85
2019-03-27T17:19:29.511Z,13.50
2019-03-27T17:24:31.259Z,12.35
2019-03-27T17:29:32.686Z,13.10
2019-03-27T17:34:34.578Z,11.70
2019-03-27T17:39:36.520Z,10.15
2019-03-27T17:44:38.012Z,14.37
2019-03-27T17:49:39.914Z,12.13
2019-03-27T17:54:41.430Z,13.62
2019-03-27T17:59:42.842Z,11.00
2019-03-27T18:04:45.595Z,13.78
2019-03-27T18:09:48.440Z,7.92
2019-03-27T18:14:49.986Z,13.38
2019-03-27T18:19:51.589Z,10.40
2019-03-27T18:24:52.930Z,12.15
2019-03-27T18:29:54.339Z,12.90
2019-03-27T18:34:57.707Z,12.47
2019-03-27T18:39:59.307Z,13.03
2019-03-27T18:45:03.994Z,14.00
2019-03-27T18:50:07.029Z,12.15
2019-03-27T18:55:09.032Z,9.65
2019-03-27T19:00:12.087Z,13.90
2019-03-27T19:05:15.064Z,13.78
2019-03-27T19:10:17.078Z,11.45
2019-03-27T19:15:18.931Z,15.25
2019-03-27T19:20:22.545Z,14.00
2019-03-27T19:25:24.088Z,15.18
2019-03-27T19:30:25.751Z,13.95
2019-03-27T19:35:27.171Z,16.23
2019-03-27T19:40:28.806Z,22.20
2019-03-27T19:45:30.292Z,20.43
2019-03-27T19:50:31.688Z,16.45
2019-03-27T19:55:33.374Z,14.63
2019-03-27T20:00:35.312Z,21.33
2019-03-27T20:05:37.241Z,22.45
2019-03-27T20:10:38.831Z,21.33
2019-03-27T20:15:40.354Z,24.45
2019-03-27T20:20:42.098Z,20.17
2019-03-27T20:25:45.722Z,22.87
2019-03-27T20:30:47.166Z,20.72
2019-03-27T20:35:50.483Z,19.67
2019-03-27T20:40:51.887Z,18.37
2019-03-27T20:45:54.360Z,20.95
2019-03-27T20:50:55.832Z,23.65
2019-03-27T20:55:57.263Z,21.95
2019-03-27T21:00:58.889Z,22.65
2019-03-27T21:06:00.418Z,21.60
2019-03-27T21:11:09.102Z,22.75
2019-03-27T21:16:24.129Z,19.05
2019-03-27T21:21:41.769Z,18.70
2019-03-27T21:26:58.707Z,26.68
2019-03-27T21:32:01.736Z,23.30
2019-03-27T21:37:03.985Z,23.25
2019-03-27T21:42:06.069Z,25.02
2019-03-27T21:47:08.303Z,25.05
2019-03-27T21:52:10.194Z,24.00
2019-03-27T21:57:32.944Z,26.07
2019-03-27T22:02:34.540Z,25.77
2019-03-27T22:07:37.820Z,22.93
2019-03-27T22:12:39.426Z,26.97
2019-03-27T22:17:42.221Z,24.12
2019-03-27T22:22:44.932Z,24.43
2019-03-27T22:27:47.719Z,24.60
2019-03-27T22:32:50.403Z,23.18
2019-03-27T22:37:51.972Z,23.50
2019-03-27T22:42:56.958Z,26.62
2019-03-27T22:47:58.856Z,25.12
2019-03-27T22:53:00.305Z,26.55
2019-03-27T22:58:01.944Z,27.13
2019-03-27T23:03:17.489Z,26.10
2019-03-27T23:08:09.080Z,29.92
2019-03-27T23:13:10.846Z,28.73
2019-03-27T23:18:12.527Z,30.80
2019-03-27T23:23:14.177Z,36.90
2019-03-27T23:28:15.675Z,30.00
2019-03-27T23:33:20.163Z,30.72
2019-03-27T23:38:20.847Z,30.30
2019-03-27T23:43:22.202Z,31.55
2019-03-27T23:48:23.820Z,32.03
2019-03-27T23:53:25.298Z,30.88
2019-03-27T23:58:26.763Z,35.45
